sensor_id;sensor_type;location;lat;lon;timestamp;P1;durP1;ratioP1;P2;durP2;ratioP2
85293;SDS011;76388;43.958;2.882;2024-02-14T00:00:03;7.85;;;2.60;;
85293;SDS011;76388;43.958;2.882;2024-02-14T00:02:29;5.38;;;2.15;;
85293;SDS011;76388;43.958;2.882;2024-02-14T00:04:56;7.55;;;3.00;;
85293;SDS011;76388;43.958;2.882;2024-02-14T00:07:22;8.27;;;2.85;;
85293;SDS011;76388;43.958;2.882;2024-02-14T00:09:48;6.82;;;3.00;;
85293;SDS011;76388;43.958;2.882;2024-02-14T00:12:15;6.25;;;2.90;;
85293;SDS011;76388;43.958;2.882;2024-02-14T00:14:41;6.53;;;2.88;;
85293;SDS011;76388;43.958;2.882;2024-02-14T00:17:08;9.48;;;3.17;;
85293;SDS011;76388;43.958;2.882;2024-02-14T00:19:35;6.03;;;2.42;;
85293;SDS011;76388;43.958;2.882;2024-02-14T00:22:02;6.55;;;2.83;;
85293;SDS011;76388;43.958;2.882;2024-02-14T00:24:28;9.38;;;3.20;;
85293;SDS011;76388;43.958;2.882;2024-02-14T00:26:55;8.18;;;2.97;;
85293;SDS011;76388;43.958;2.882;2024-02-14T00:29:22;7.05;;;2.90;;
85293;SDS011;76388;43.958;2.882;2024-02-14T00:31:49;7.25;;;3.00;;
85293;SDS011;76388;43.958;2.882;2024-02-14T00:34:16;8.65;;;2.72;;
85293;SDS011;76388;43.958;2.882;2024-02-14T00:36:42;6.75;;;2.72;;
85293;SDS011;76388;43.958;2.882;2024-02-14T00:39:08;5.95;;;2.25;;
85293;SDS011;76388;43.958;2.882;2024-02-14T00:41:35;5.78;;;2.17;;
85293;SDS011;76388;43.958;2.882;2024-02-14T00:44:01;9.52;;;2.90;;
85293;SDS011;76388;43.958;2.882;2024-02-14T00:46:28;6.15;;;2.58;;
85293;SDS011;76388;43.958;2.882;2024-02-14T00:48:55;8.38;;;3.30;;
85293;SDS011;76388;43.958;2.882;2024-02-14T00:51:22;9.30;;;3.40;;
85293;SDS011;76388;43.958;2.882;2024-02-14T00:53:48;11.57;;;3.50;;
85293;SDS011;76388;43.958;2.882;2024-02-14T00:56:14;7.43;;;3.15;;
85293;SDS011;76388;43.958;2.882;2024-02-14T00:58:40;9.30;;;2.78;;
85293;SDS011;76388;43.958;2.882;2024-02-14T01:01:06;7.53;;;3.05;;
85293;SDS011;76388;43.958;2.882;2024-02-14T01:03:33;7.13;;;3.00;;
85293;SDS011;76388;43.958;2.882;2024-02-14T01:05:59;6.53;;;2.50;;
85293;SDS011;76388;43.958;2.882;2024-02-14T01:08:25;7.03;;;2.78;;
85293;SDS011;76388;43.958;2.882;2024-02-14T01:10:51;6.68;;;2.80;;
85293;SDS011;76388;43.958;2.882;2024-02-14T01:13:18;7.75;;;2.95;;
85293;SDS011;76388;43.958;2.882;2024-02-14T01:15:44;8.75;;;3.17;;
85293;SDS011;76388;43.958;2.882;2024-02-14T01:18:10;7.57;;;3.00;;
85293;SDS011;76388;43.958;2.882;2024-02-14T01:20:37;11.75;;;3.42;;
85293;SDS011;76388;43.958;2.882;2024-02-14T01:23:03;7.00;;;2.70;;
85293;SDS011;76388;43.958;2.882;2024-02-14T01:25:30;6.82;;;2.47;;
85293;SDS011;76388;43.958;2.882;2024-02-14T01:27:56;6.78;;;2.65;;
85293;SDS011;76388;43.958;2.882;2024-02-14T01:30:23;5.30;;;2.50;;
85293;SDS011;76388;43.958;2.882;2024-02-14T01:32:50;5.47;;;2.33;;
85293;SDS011;76388;43.958;2.882;2024-02-14T01:35:18;6.22;;;2.40;;
85293;SDS011;76388;43.958;2.882;2024-02-14T01:37:45;6.10;;;2.60;;
85293;SDS011;76388;43.958;2.882;2024-02-14T01:40:12;5.18;;;2.20;;
85293;SDS011;76388;43.958;2.882;2024-02-14T01:42:38;6.63;;;2.40;;
85293;SDS011;76388;43.958;2.882;2024-02-14T01:47:31;6.90;;;2.65;;
85293;SDS011;76388;43.958;2.882;2024-02-14T01:49:58;9.05;;;2.80;;
85293;SDS011;76388;43.958;2.882;2024-02-14T01:52:24;6.88;;;3.08;;
85293;SDS011;76388;43.958;2.882;2024-02-14T01:54:51;8.95;;;3.53;;
85293;SDS011;76388;43.958;2.882;2024-02-14T01:57:17;9.68;;;3.72;;
85293;SDS011;76388;43.958;2.882;2024-02-14T01:59:44;9.25;;;3.10;;
85293;SDS011;76388;43.958;2.882;2024-02-14T02:02:10;10.15;;;3.20;;
85293;SDS011;76388;43.958;2.882;2024-02-14T02:04:37;7.45;;;2.45;;
85293;SDS011;76388;43.958;2.882;2024-02-14T02:07:03;7.28;;;2.45;;
85293;SDS011;76388;43.958;2.882;2024-02-14T02:09:30;4.70;;;2.28;;
85293;SDS011;76388;43.958;2.882;2024-02-14T02:11:58;5.13;;;2.05;;
85293;SDS011;76388;43.958;2.882;2024-02-14T02:14:26;6.63;;;2.42;;
85293;SDS011;76388;43.958;2.882;2024-02-14T02:19:18;5.35;;;2.00;;
85293;SDS011;76388;43.958;2.882;2024-02-14T02:21:45;5.07;;;1.80;;
85293;SDS011;76388;43.958;2.882;2024-02-14T02:24:11;6.32;;;2.45;;
85293;SDS011;76388;43.958;2.882;2024-02-14T02:26:37;6.13;;;2.17;;
85293;SDS011;76388;43.958;2.882;2024-02-14T02:29:04;5.93;;;2.35;;
85293;SDS011;76388;43.958;2.882;2024-02-14T02:31:31;5.93;;;2.10;;
85293;SDS011;76388;43.958;2.882;2024-02-14T02:33:58;6.72;;;2.25;;
85293;SDS011;76388;43.958;2.882;2024-02-14T02:36:24;5.50;;;2.30;;
85293;SDS011;76388;43.958;2.882;2024-02-14T02:38:51;7.28;;;2.47;;
85293;SDS011;76388;43.958;2.882;2024-02-14T02:41:17;6.57;;;2.50;;
85293;SDS011;76388;43.958;2.882;2024-02-14T02:43:43;6.10;;;2.17;;
85293;SDS011;76388;43.958;2.882;2024-02-14T02:46:09;5.53;;;2.60;;
85293;SDS011;76388;43.958;2.882;2024-02-14T02:51:01;7.15;;;2.65;;
85293;SDS011;76388;43.958;2.882;2024-02-14T02:53:28;6.57;;;2.78;;
85293;SDS011;76388;43.958;2.882;2024-02-14T02:55:54;6.72;;;2.47;;
85293;SDS011;76388;43.958;2.882;2024-02-14T02:58:22;5.63;;;2.30;;
85293;SDS011;76388;43.958;2.882;2024-02-14T03:00:48;6.85;;;1.98;;
85293;SDS011;76388;43.958;2.882;2024-02-14T03:03:15;5.07;;;2.28;;
85293;SDS011;76388;43.958;2.882;2024-02-14T03:05:41;6.60;;;2.40;;
85293;SDS011;76388;43.958;2.882;2024-02-14T03:08:10;5.22;;;2.20;;
85293;SDS011;76388;43.958;2.882;2024-02-14T03:10:41;5.63;;;2.47;;
85293;SDS011;76388;43.958;2.882;2024-02-14T03:13:07;6.47;;;2.22;;
85293;SDS011;76388;43.958;2.882;2024-02-14T03:15:37;4.80;;;2.05;;
85293;SDS011;76388;43.958;2.882;2024-02-14T03:18:04;5.53;;;2.03;;
85293;SDS011;76388;43.958;2.882;2024-02-14T03:20:35;5.53;;;2.75;;
85293;SDS011;76388;43.958;2.882;2024-02-14T03:23:01;7.07;;;2.63;;
85293;SDS011;76388;43.958;2.882;2024-02-14T03:25:29;6.63;;;2.30;;
85293;SDS011;76388;43.958;2.882;2024-02-14T03:27:55;5.53;;;2.28;;
85293;SDS011;76388;43.958;2.882;2024-02-14T03:30:22;5.75;;;2.05;;
85293;SDS011;76388;43.958;2.882;2024-02-14T03:32:49;5.78;;;2.13;;
85293;SDS011;76388;43.958;2.882;2024-02-14T03:35:15;6.00;;;2.00;;
85293;SDS011;76388;43.958;2.882;2024-02-14T03:37:43;6.03;;;2.17;;
85293;SDS011;76388;43.958;2.882;2024-02-14T03:40:13;6.18;;;2.10;;
85293;SDS011;76388;43.958;2.882;2024-02-14T03:42:39;5.65;;;1.83;;
85293;SDS011;76388;43.958;2.882;2024-02-14T03:45:06;6.35;;;2.20;;
85293;SDS011;76388;43.958;2.882;2024-02-14T03:47:33;7.35;;;2.42;;
85293;SDS011;76388;43.958;2.882;2024-02-14T03:49:59;6.75;;;2.40;;
85293;SDS011;76388;43.958;2.882;2024-02-14T03:52:27;6.50;;;2.15;;
85293;SDS011;76388;43.958;2.882;2024-02-14T03:54:53;7.38;;;2.47;;
85293;SDS011;76388;43.958;2.882;2024-02-14T03:57:20;7.32;;;2.10;;
85293;SDS011;76388;43.958;2.882;2024-02-14T03:59:46;7.60;;;2.22;;
85293;SDS011;76388;43.958;2.882;2024-02-14T04:02:12;6.13;;;2.20;;
85293;SDS011;76388;43.958;2.882;2024-02-14T04:04:41;6.85;;;2.40;;
85293;SDS011;76388;43.958;2.882;2024-02-14T04:07:07;6.32;;;2.03;;
85293;SDS011;76388;43.958;2.882;2024-02-14T04:09:34;5.28;;;2.13;;
85293;SDS011;76388;43.958;2.882;2024-02-14T04:12:01;6.88;;;2.55;;
85293;SDS011;76388;43.958;2.882;2024-02-14T04:14:27;6.43;;;2.25;;
85293;SDS011;76388;43.958;2.882;2024-02-14T04:16:54;6.15;;;2.15;;
85293;SDS011;76388;43.958;2.882;2024-02-14T04:19:20;5.28;;;2.10;;
85293;SDS011;76388;43.958;2.882;2024-02-14T04:21:46;4.95;;;2.22;;
85293;SDS011;76388;43.958;2.882;2024-02-14T04:24:14;5.43;;;2.15;;
85293;SDS011;76388;43.958;2.882;2024-02-14T04:26:40;5.35;;;2.13;;
85293;SDS011;76388;43.958;2.882;2024-02-14T04:31:33;4.70;;;2.10;;
85293;SDS011;76388;43.958;2.882;2024-02-14T04:34:00;7.32;;;2.30;;
85293;SDS011;76388;43.958;2.882;2024-02-14T04:36:26;6.55;;;2.10;;
85293;SDS011;76388;43.958;2.882;2024-02-14T04:38:55;6.25;;;2.28;;
85293;SDS011;76388;43.958;2.882;2024-02-14T04:41:22;4.75;;;1.95;;
85293;SDS011;76388;43.958;2.882;2024-02-14T04:43:49;6.00;;;1.95;;
85293;SDS011;76388;43.958;2.882;2024-02-14T04:48:41;4.57;;;1.90;;
85293;SDS011;76388;43.958;2.882;2024-02-14T04:51:07;4.07;;;1.85;;
85293;SDS011;76388;43.958;2.882;2024-02-14T04:56:01;4.35;;;1.85;;
85293;SDS011;76388;43.958;2.882;2024-02-14T04:58:27;5.95;;;1.95;;
85293;SDS011;76388;43.958;2.882;2024-02-14T05:03:20;5.13;;;2.00;;
85293;SDS011;76388;43.958;2.882;2024-02-14T05:05:46;4.88;;;2.10;;
85293;SDS011;76388;43.958;2.882;2024-02-14T05:08:13;5.55;;;1.90;;
85293;SDS011;76388;43.958;2.882;2024-02-14T05:10:39;3.85;;;1.73;;
85293;SDS011;76388;43.958;2.882;2024-02-14T05:13:06;5.78;;;2.00;;
85293;SDS011;76388;43.958;2.882;2024-02-14T05:18:00;5.05;;;2.03;;
85293;SDS011;76388;43.958;2.882;2024-02-14T05:20:26;5.80;;;2.05;;
85293;SDS011;76388;43.958;2.882;2024-02-14T05:22:53;6.45;;;2.15;;
85293;SDS011;76388;43.958;2.882;2024-02-14T05:25:19;7.90;;;2.20;;
85293;SDS011;76388;43.958;2.882;2024-02-14T05:27:46;4.15;;;1.67;;
85293;SDS011;76388;43.958;2.882;2024-02-14T05:30:12;6.13;;;2.13;;
85293;SDS011;76388;43.958;2.882;2024-02-14T05:32:39;4.53;;;2.00;;
85293;SDS011;76388;43.958;2.882;2024-02-14T05:35:06;6.22;;;2.30;;
85293;SDS011;76388;43.958;2.882;2024-02-14T05:37:33;4.13;;;2.08;;
85293;SDS011;76388;43.958;2.882;2024-02-14T05:39:59;4.50;;;1.95;;
85293;SDS011;76388;43.958;2.882;2024-02-14T05:42:26;4.70;;;2.17;;
85293;SDS011;76388;43.958;2.882;2024-02-14T05:47:18;6.68;;;2.30;;
85293;SDS011;76388;43.958;2.882;2024-02-14T05:49:44;4.30;;;1.90;;
85293;SDS011;76388;43.958;2.882;2024-02-14T05:52:11;4.90;;;2.25;;
85293;SDS011;76388;43.958;2.882;2024-02-14T05:54:37;5.85;;;2.13;;
85293;SDS011;76388;43.958;2.882;2024-02-14T05:57:03;7.70;;;2.40;;
85293;SDS011;76388;43.958;2.882;2024-02-14T05:59:30;6.88;;;2.33;;
85293;SDS011;76388;43.958;2.882;2024-02-14T06:01:57;7.20;;;2.70;;
85293;SDS011;76388;43.958;2.882;2024-02-14T06:04:24;5.28;;;2.38;;
85293;SDS011;76388;43.958;2.882;2024-02-14T06:06:50;7.10;;;2.40;;
85293;SDS011;76388;43.958;2.882;2024-02-14T06:09:17;5.53;;;2.58;;
85293;SDS011;76388;43.958;2.882;2024-02-14T06:14:09;6.40;;;2.30;;
85293;SDS011;76388;43.958;2.882;2024-02-14T06:19:01;5.50;;;2.30;;
85293;SDS011;76388;43.958;2.882;2024-02-14T06:21:30;6.70;;;2.17;;
85293;SDS011;76388;43.958;2.882;2024-02-14T06:23:58;6.82;;;2.22;;
85293;SDS011;76388;43.958;2.882;2024-02-14T06:26:25;4.50;;;2.25;;
85293;SDS011;76388;43.958;2.882;2024-02-14T06:28:52;5.57;;;2.20;;
85293;SDS011;76388;43.958;2.882;2024-02-14T06:31:21;5.47;;;2.35;;
85293;SDS011;76388;43.958;2.882;2024-02-14T06:33:48;6.95;;;2.33;;
85293;SDS011;76388;43.958;2.882;2024-02-14T06:36:14;5.95;;;2.60;;
85293;SDS011;76388;43.958;2.882;2024-02-14T06:38:41;6.93;;;2.58;;
85293;SDS011;76388;43.958;2.882;2024-02-14T06:41:07;6.55;;;2.42;;
85293;SDS011;76388;43.958;2.882;2024-02-14T06:45:59;5.72;;;2.33;;
85293;SDS011;76388;43.958;2.882;2024-02-14T06:48:25;5.70;;;2.83;;
85293;SDS011;76388;43.958;2.882;2024-02-14T06:50:52;6.80;;;2.60;;
85293;SDS011;76388;43.958;2.882;2024-02-14T06:53:18;5.68;;;3.00;;
85293;SDS011;76388;43.958;2.882;2024-02-14T06:55:45;6.25;;;2.53;;
85293;SDS011;76388;43.958;2.882;2024-02-14T07:00:37;6.03;;;2.30;;
85293;SDS011;76388;43.958;2.882;2024-02-14T07:03:04;6.60;;;2.83;;
85293;SDS011;76388;43.958;2.882;2024-02-14T07:05:31;6.85;;;3.10;;
85293;SDS011;76388;43.958;2.882;2024-02-14T07:07:57;8.13;;;3.15;;
85293;SDS011;76388;43.958;2.882;2024-02-14T07:10:24;6.30;;;2.53;;
85293;SDS011;76388;43.958;2.882;2024-02-14T07:12:50;7.90;;;3.03;;
85293;SDS011;76388;43.958;2.882;2024-02-14T07:15:16;7.20;;;3.22;;
85293;SDS011;76388;43.958;2.882;2024-02-14T07:20:09;6.88;;;2.92;;
85293;SDS011;76388;43.958;2.882;2024-02-14T07:22:35;7.20;;;3.00;;
85293;SDS011;76388;43.958;2.882;2024-02-14T07:27:30;7.45;;;2.67;;
85293;SDS011;76388;43.958;2.882;2024-02-14T07:32:22;9.23;;;3.53;;
85293;SDS011;76388;43.958;2.882;2024-02-14T07:37:14;9.82;;;3.90;;
85293;SDS011;76388;43.958;2.882;2024-02-14T07:39:43;11.23;;;3.70;;
85293;SDS011;76388;43.958;2.882;2024-02-14T07:42:12;11.93;;;3.42;;
85293;SDS011;76388;43.958;2.882;2024-02-14T07:44:38;8.40;;;3.33;;
85293;SDS011;76388;43.958;2.882;2024-02-14T07:47:04;7.72;;;3.10;;
85293;SDS011;76388;43.958;2.882;2024-02-14T07:51:56;7.38;;;3.05;;
85293;SDS011;76388;43.958;2.882;2024-02-14T07:56:48;10.18;;;3.15;;
85293;SDS011;76388;43.958;2.882;2024-02-14T07:59:15;7.72;;;3.17;;
85293;SDS011;76388;43.958;2.882;2024-02-14T08:04:08;8.43;;;3.47;;
85293;SDS011;76388;43.958;2.882;2024-02-14T08:09:01;11.07;;;3.75;;
85293;SDS011;76388;43.958;2.882;2024-02-14T08:11:31;9.32;;;4.65;;
85293;SDS011;76388;43.958;2.882;2024-02-14T08:13:58;8.43;;;3.72;;
85293;SDS011;76388;43.958;2.882;2024-02-14T08:16:25;10.60;;;4.55;;
85293;SDS011;76388;43.958;2.882;2024-02-14T08:21:24;11.00;;;4.57;;
85293;SDS011;76388;43.958;2.882;2024-02-14T08:23:52;10.63;;;5.15;;
85293;SDS011;76388;43.958;2.882;2024-02-14T08:26:20;8.38;;;3.88;;
85293;SDS011;76388;43.958;2.882;2024-02-14T08:28:48;11.55;;;4.50;;
85293;SDS011;76388;43.958;2.882;2024-02-14T08:31:14;11.20;;;4.70;;
85293;SDS011;76388;43.958;2.882;2024-02-14T08:33:41;9.38;;;3.78;;
85293;SDS011;76388;43.958;2.882;2024-02-14T08:36:08;8.00;;;3.78;;
85293;SDS011;76388;43.958;2.882;2024-02-14T08:38:34;6.00;;;2.42;;
85293;SDS011;76388;43.958;2.882;2024-02-14T08:41:01;7.13;;;2.80;;
85293;SDS011;76388;43.958;2.882;2024-02-14T08:43:28;7.60;;;2.88;;
85293;SDS011;76388;43.958;2.882;2024-02-14T08:45:55;6.50;;;2.97;;
85293;SDS011;76388;43.958;2.882;2024-02-14T08:48:21;6.03;;;2.80;;
85293;SDS011;76388;43.958;2.882;2024-02-14T08:50:48;6.53;;;2.70;;
85293;SDS011;76388;43.958;2.882;2024-02-14T08:53:14;7.00;;;3.17;;
85293;SDS011;76388;43.958;2.882;2024-02-14T08:55:41;10.23;;;4.32;;
85293;SDS011;76388;43.958;2.882;2024-02-14T08:58:07;12.40;;;5.53;;
85293;SDS011;76388;43.958;2.882;2024-02-14T09:00:35;8.80;;;4.50;;
85293;SDS011;76388;43.958;2.882;2024-02-14T09:03:03;9.70;;;3.67;;
85293;SDS011;76388;43.958;2.882;2024-02-14T09:05:29;11.00;;;3.85;;
85293;SDS011;76388;43.958;2.882;2024-02-14T09:07:56;9.20;;;3.53;;
85293;SDS011;76388;43.958;2.882;2024-02-14T09:10:22;10.32;;;4.50;;
85293;SDS011;76388;43.958;2.882;2024-02-14T09:12:49;11.02;;;5.18;;
85293;SDS011;76388;43.958;2.882;2024-02-14T09:15:15;11.65;;;5.60;;
85293;SDS011;76388;43.958;2.882;2024-02-14T09:17:41;10.43;;;4.55;;
85293;SDS011;76388;43.958;2.882;2024-02-14T09:20:08;6.85;;;3.05;;
85293;SDS011;76388;43.958;2.882;2024-02-14T09:22:35;8.38;;;3.50;;
85293;SDS011;76388;43.958;2.882;2024-02-14T09:25:02;9.70;;;4.68;;
85293;SDS011;76388;43.958;2.882;2024-02-14T09:27:30;10.10;;;4.93;;
85293;SDS011;76388;43.958;2.882;2024-02-14T09:29:56;8.30;;;4.50;;
85293;SDS011;76388;43.958;2.882;2024-02-14T09:32:22;9.25;;;4.80;;
85293;SDS011;76388;43.958;2.882;2024-02-14T09:34:48;7.28;;;3.60;;
85293;SDS011;76388;43.958;2.882;2024-02-14T09:37:15;8.43;;;3.50;;
85293;SDS011;76388;43.958;2.882;2024-02-14T09:39:42;9.05;;;3.20;;
85293;SDS011;76388;43.958;2.882;2024-02-14T09:42:11;7.68;;;2.63;;
85293;SDS011;76388;43.958;2.882;2024-02-14T09:44:39;11.02;;;3.20;;
85293;SDS011;76388;43.958;2.882;2024-02-14T09:47:06;7.32;;;2.75;;
85293;SDS011;76388;43.958;2.882;2024-02-14T09:49:34;6.07;;;2.50;;
85293;SDS011;76388;43.958;2.882;2024-02-14T09:52:02;6.60;;;2.63;;
85293;SDS011;76388;43.958;2.882;2024-02-14T09:54:29;6.88;;;3.15;;
85293;SDS011;76388;43.958;2.882;2024-02-14T09:56:56;7.68;;;3.97;;
85293;SDS011;76388;43.958;2.882;2024-02-14T09:59:23;7.07;;;3.53;;
85293;SDS011;76388;43.958;2.882;2024-02-14T10:01:50;7.53;;;3.47;;
85293;SDS011;76388;43.958;2.882;2024-02-14T10:04:19;9.15;;;3.28;;
85293;SDS011;76388;43.958;2.882;2024-02-14T10:06:47;8.30;;;3.58;;
85293;SDS011;76388;43.958;2.882;2024-02-14T10:09:19;9.05;;;3.50;;
85293;SDS011;76388;43.958;2.882;2024-02-14T10:11:46;9.52;;;3.50;;
85293;SDS011;76388;43.958;2.882;2024-02-14T10:14:12;8.32;;;3.83;;
85293;SDS011;76388;43.958;2.882;2024-02-14T10:16:38;7.43;;;3.63;;
85293;SDS011;76388;43.958;2.882;2024-02-14T10:19:13;8.57;;;3.63;;
85293;SDS011;76388;43.958;2.882;2024-02-14T10:21:41;8.82;;;3.67;;
85293;SDS011;76388;43.958;2.882;2024-02-14T10:24:07;11.35;;;3.50;;
85293;SDS011;76388;43.958;2.882;2024-02-14T10:26:36;7.93;;;3.42;;
85293;SDS011;76388;43.958;2.882;2024-02-14T10:29:03;7.28;;;3.40;;
85293;SDS011;76388;43.958;2.882;2024-02-14T10:31:31;7.15;;;3.58;;
85293;SDS011;76388;43.958;2.882;2024-02-14T10:33:58;7.60;;;3.50;;
85293;SDS011;76388;43.958;2.882;2024-02-14T10:36:26;7.25;;;3.40;;
85293;SDS011;76388;43.958;2.882;2024-02-14T10:38:52;9.10;;;3.78;;
85293;SDS011;76388;43.958;2.882;2024-02-14T10:41:19;7.57;;;3.67;;
85293;SDS011;76388;43.958;2.882;2024-02-14T10:43:46;6.85;;;3.50;;
85293;SDS011;76388;43.958;2.882;2024-02-14T10:46:15;6.88;;;3.33;;
85293;SDS011;76388;43.958;2.882;2024-02-14T10:48:46;12.73;;;3.83;;
85293;SDS011;76388;43.958;2.882;2024-02-14T10:51:15;9.45;;;4.00;;
85293;SDS011;76388;43.958;2.882;2024-02-14T10:53:41;10.15;;;4.47;;
85293;SDS011;76388;43.958;2.882;2024-02-14T10:56:12;8.98;;;4.88;;
85293;SDS011;76388;43.958;2.882;2024-02-14T10:58:45;7.97;;;4.32;;
85293;SDS011;76388;43.958;2.882;2024-02-14T11:01:13;9.32;;;4.60;;
85293;SDS011;76388;43.958;2.882;2024-02-14T11:03:41;11.00;;;4.57;;
85293;SDS011;76388;43.958;2.882;2024-02-14T11:06:08;9.50;;;4.88;;
85293;SDS011;76388;43.958;2.882;2024-02-14T11:08:36;11.15;;;4.72;;
85293;SDS011;76388;43.958;2.882;2024-02-14T11:11:02;8.73;;;4.25;;
85293;SDS011;76388;43.958;2.882;2024-02-14T11:13:29;9.70;;;4.00;;
85293;SDS011;76388;43.958;2.882;2024-02-14T11:15:59;9.30;;;3.80;;
85293;SDS011;76388;43.958;2.882;2024-02-14T11:18:29;8.68;;;4.28;;
85293;SDS011;76388;43.958;2.882;2024-02-14T11:20:57;9.90;;;3.72;;
85293;SDS011;76388;43.958;2.882;2024-02-14T11:23:23;7.82;;;3.53;;
85293;SDS011;76388;43.958;2.882;2024-02-14T11:25:50;7.40;;;3.42;;
85293;SDS011;76388;43.958;2.882;2024-02-14T11:28:17;6.95;;;3.22;;
85293;SDS011;76388;43.958;2.882;2024-02-14T11:30:47;6.55;;;3.00;;
85293;SDS011;76388;43.958;2.882;2024-02-14T11:33:14;7.15;;;2.95;;
85293;SDS011;76388;43.958;2.882;2024-02-14T11:35:43;6.65;;;3.13;;
85293;SDS011;76388;43.958;2.882;2024-02-14T11:38:11;6.72;;;3.00;;
85293;SDS011;76388;43.958;2.882;2024-02-14T11:40:38;6.07;;;2.63;;
85293;SDS011;76388;43.958;2.882;2024-02-14T11:43:05;8.57;;;3.28;;
85293;SDS011;76388;43.958;2.882;2024-02-14T11:45:37;8.55;;;3.00;;
85293;SDS011;76388;43.958;2.882;2024-02-14T11:48:08;7.57;;;3.08;;
85293;SDS011;76388;43.958;2.882;2024-02-14T11:50:35;6.15;;;2.92;;
85293;SDS011;76388;43.958;2.882;2024-02-14T11:53:02;7.50;;;3.10;;
85293;SDS011;76388;43.958;2.882;2024-02-14T11:55:29;6.57;;;3.10;;
85293;SDS011;76388;43.958;2.882;2024-02-14T11:57:58;7.25;;;2.90;;
85293;SDS011;76388;43.958;2.882;2024-02-14T12:00:24;6.70;;;2.55;;
85293;SDS011;76388;43.958;2.882;2024-02-14T12:02:51;6.90;;;2.90;;
85293;SDS011;76388;43.958;2.882;2024-02-14T12:05:17;6.55;;;3.17;;
85293;SDS011;76388;43.958;2.882;2024-02-14T12:07:44;7.15;;;3.35;;
85293;SDS011;76388;43.958;2.882;2024-02-14T12:10:11;5.63;;;2.70;;
85293;SDS011;76388;43.958;2.882;2024-02-14T12:12:38;7.00;;;2.70;;
85293;SDS011;76388;43.958;2.882;2024-02-14T12:15:04;6.18;;;2.75;;
85293;SDS011;76388;43.958;2.882;2024-02-14T12:17:31;8.10;;;2.80;;
85293;SDS011;76388;43.958;2.882;2024-02-14T12:20:05;6.05;;;2.40;;
85293;SDS011;76388;43.958;2.882;2024-02-14T12:22:37;5.80;;;2.70;;
85293;SDS011;76388;43.958;2.882;2024-02-14T12:25:03;5.43;;;2.50;;
85293;SDS011;76388;43.958;2.882;2024-02-14T12:27:32;5.82;;;2.65;;
85293;SDS011;76388;43.958;2.882;2024-02-14T12:29:59;4.50;;;2.10;;
85293;SDS011;76388;43.958;2.882;2024-02-14T12:32:29;5.20;;;2.30;;
85293;SDS011;76388;43.958;2.882;2024-02-14T12:34:56;6.75;;;2.28;;
85293;SDS011;76388;43.958;2.882;2024-02-14T12:37:23;7.25;;;2.25;;
85293;SDS011;76388;43.958;2.882;2024-02-14T12:39:49;4.80;;;2.10;;
85293;SDS011;76388;43.958;2.882;2024-02-14T12:42:15;6.00;;;1.95;;
85293;SDS011;76388;43.958;2.882;2024-02-14T12:44:43;5.57;;;2.25;;
85293;SDS011;76388;43.958;2.882;2024-02-14T12:47:10;5.00;;;2.03;;
85293;SDS011;76388;43.958;2.882;2024-02-14T12:49:36;6.47;;;2.35;;
85293;SDS011;76388;43.958;2.882;2024-02-14T12:52:02;7.15;;;2.90;;
85293;SDS011;76388;43.958;2.882;2024-02-14T12:54:30;11.98;;;2.65;;
85293;SDS011;76388;43.958;2.882;2024-02-14T12:56:56;4.90;;;2.00;;
85293;SDS011;76388;43.958;2.882;2024-02-14T12:59:23;4.88;;;2.10;;
85293;SDS011;76388;43.958;2.882;2024-02-14T13:01:49;6.75;;;2.00;;
85293;SDS011;76388;43.958;2.882;2024-02-14T13:04:15;4.50;;;1.90;;
85293;SDS011;76388;43.958;2.882;2024-02-14T13:06:42;5.70;;;2.03;;
85293;SDS011;76388;43.958;2.882;2024-02-14T13:09:08;7.63;;;2.22;;
85293;SDS011;76388;43.958;2.882;2024-02-14T13:11:35;7.00;;;2.13;;
85293;SDS011;76388;43.958;2.882;2024-02-14T13:14:03;4.82;;;1.83;;
85293;SDS011;76388;43.958;2.882;2024-02-14T13:16:29;4.47;;;2.00;;
85293;SDS011;76388;43.958;2.882;2024-02-14T13:18:56;6.05;;;2.05;;
85293;SDS011;76388;43.958;2.882;2024-02-14T13:21:22;5.07;;;1.73;;
85293;SDS011;76388;43.958;2.882;2024-02-14T13:23:48;3.97;;;1.75;;
85293;SDS011;76388;43.958;2.882;2024-02-14T13:26:14;7.30;;;2.10;;
85293;SDS011;76388;43.958;2.882;2024-02-14T13:28:40;4.53;;;1.70;;
85293;SDS011;76388;43.958;2.882;2024-02-14T13:31:07;5.15;;;1.92;;
85293;SDS011;76388;43.958;2.882;2024-02-14T13:33:33;4.13;;;1.70;;
85293;SDS011;76388;43.958;2.882;2024-02-14T13:35:59;6.88;;;1.90;;
85293;SDS011;76388;43.958;2.882;2024-02-14T13:38:25;5.68;;;1.80;;
85293;SDS011;76388;43.958;2.882;2024-02-14T13:40:51;3.35;;;1.52;;
85293;SDS011;76388;43.958;2.882;2024-02-14T13:43:18;3.92;;;1.50;;
85293;SDS011;76388;43.958;2.882;2024-02-14T13:45:44;5.88;;;1.50;;
85293;SDS011;76388;43.958;2.882;2024-02-14T13:48:12;4.40;;;1.70;;
85293;SDS011;76388;43.958;2.882;2024-02-14T13:50:38;3.05;;;1.40;;
85293;SDS011;76388;43.958;2.882;2024-02-14T13:53:06;3.28;;;1.50;;
85293;SDS011;76388;43.958;2.882;2024-02-14T13:55:32;4.05;;;1.60;;
85293;SDS011;76388;43.958;2.882;2024-02-14T13:57:59;5.55;;;1.60;;
85293;SDS011;76388;43.958;2.882;2024-02-14T14:00:25;2.83;;;1.42;;
85293;SDS011;76388;43.958;2.882;2024-02-14T14:02:51;3.40;;;1.45;;
85293;SDS011;76388;43.958;2.882;2024-02-14T14:05:18;3.58;;;1.42;;
85293;SDS011;76388;43.958;2.882;2024-02-14T14:07:47;2.75;;;1.30;;
85293;SDS011;76388;43.958;2.882;2024-02-14T14:10:13;5.82;;;1.50;;
85293;SDS011;76388;43.958;2.882;2024-02-14T14:12:39;3.45;;;1.50;;
85293;SDS011;76388;43.958;2.882;2024-02-14T14:15:05;4.40;;;1.60;;
85293;SDS011;76388;43.958;2.882;2024-02-14T14:17:34;3.70;;;1.48;;
85293;SDS011;76388;43.958;2.882;2024-02-14T14:20:02;4.32;;;1.48;;
85293;SDS011;76388;43.958;2.882;2024-02-14T14:22:29;4.53;;;1.90;;
85293;SDS011;76388;43.958;2.882;2024-02-14T14:24:55;3.80;;;1.50;;
85293;SDS011;76388;43.958;2.882;2024-02-14T14:27:22;3.53;;;1.48;;
85293;SDS011;76388;43.958;2.882;2024-02-14T14:29:48;4.80;;;1.50;;
85293;SDS011;76388;43.958;2.882;2024-02-14T14:32:14;3.25;;;1.40;;
85293;SDS011;76388;43.958;2.882;2024-02-14T14:34:42;4.65;;;1.50;;
85293;SDS011;76388;43.958;2.882;2024-02-14T14:37:08;5.90;;;1.50;;
85293;SDS011;76388;43.958;2.882;2024-02-14T14:39:35;4.10;;;1.40;;
85293;SDS011;76388;43.958;2.882;2024-02-14T14:42:02;5.47;;;1.60;;
85293;SDS011;76388;43.958;2.882;2024-02-14T14:44:29;3.25;;;1.40;;
85293;SDS011;76388;43.958;2.882;2024-02-14T14:46:56;2.88;;;1.25;;
85293;SDS011;76388;43.958;2.882;2024-02-14T14:49:22;4.28;;;1.48;;
85293;SDS011;76388;43.958;2.882;2024-02-14T14:51:48;3.92;;;1.50;;
85293;SDS011;76388;43.958;2.882;2024-02-14T14:54:14;3.65;;;1.38;;
85293;SDS011;76388;43.958;2.882;2024-02-14T14:56:41;4.32;;;1.50;;
85293;SDS011;76388;43.958;2.882;2024-02-14T14:59:07;7.40;;;1.30;;
85293;SDS011;76388;43.958;2.882;2024-02-14T15:01:34;2.75;;;1.10;;
85293;SDS011;76388;43.958;2.882;2024-02-14T15:04:00;2.55;;;1.00;;
85293;SDS011;76388;43.958;2.882;2024-02-14T15:06:27;2.80;;;1.10;;
85293;SDS011;76388;43.958;2.882;2024-02-14T15:08:53;2.85;;;0.95;;
85293;SDS011;76388;43.958;2.882;2024-02-14T15:11:19;2.72;;;1.00;;
85293;SDS011;76388;43.958;2.882;2024-02-14T15:13:46;2.22;;;0.95;;
85293;SDS011;76388;43.958;2.882;2024-02-14T15:16:13;3.10;;;0.90;;
85293;SDS011;76388;43.958;2.882;2024-02-14T15:18:39;4.32;;;0.98;;
85293;SDS011;76388;43.958;2.882;2024-02-14T15:21:08;2.15;;;0.90;;
85293;SDS011;76388;43.958;2.882;2024-02-14T15:23:36;2.03;;;0.85;;
85293;SDS011;76388;43.958;2.882;2024-02-14T15:26:02;10.20;;;7.70;;
85293;SDS011;76388;43.958;2.882;2024-02-14T15:28:31;7.22;;;3.13;;
85293;SDS011;76388;43.958;2.882;2024-02-14T15:31:00;6.00;;;1.60;;
85293;SDS011;76388;43.958;2.882;2024-02-14T15:33:45;7.55;;;1.50;;
85293;SDS011;76388;43.958;2.882;2024-02-14T15:36:12;3.05;;;1.17;;